Latest Weather Observations for Middle Point

IDD60901

Issued at 1:51 pm CST Friday 22 November 2019 (issued every 10 minutes, with the page automatically refreshed every 10 minutes)

About weather observations | Map of Darwin area stations | Latest observations for Darwin area | Other Formats
Station Details ID: 014041 Name: MIDDLE POINT Lat: -12.61 Lon: 131.30 Height: 14.1 m
Data from the previous 72 hours. | See also: Recent months at Middle Point
Date/Time
CST
Temp
°C
App
Temp
°C
Dew
Point
°C
Rel
Hum
%
Delta-T
°C
Wind Press
QNH
hPa
Press
MSL
hPa
Rain since
9am
mm
Dir  Spd
km/h
Gust
km/h
Spd
kts
Gust
kts
22/01:30pm 36.3 38.9 20.5 39 10.7 NW 7 19 4 10 1009.6 1009.5 0.0
22/01:00pm 36.1 38.5 21.5 42 10.0 N 11 20 6 11 1010.0 1009.9 0.0
22/12:30pm 35.6 36.4 20.7 41 10.1 N 17 26 9 14 1010.3 1010.2 0.0
22/12:00pm 35.2 37.2 21.5 45 9.3 N 13 22 7 12 1010.7 1010.6 0.0
22/11:30am 34.8 36.8 22.2 48 8.6 NNW 15 24 8 13 1011.0 1010.8 0.0
22/11:00am 34.0 36.3 22.7 51 7.8 NNW 15 22 8 12 1011.4 1011.2 0.0
22/10:30am 33.3 35.9 23.3 55 6.9 NNW 15 19 8 10 1011.5 1011.3 0.0
22/10:00am 32.4 36.1 23.9 61 5.9 N 11 19 6 10 1011.8 1011.6 0.0
22/09:30am 31.5 36.3 24.4 66 5.0 N 7 13 4 7 1012.0 1011.8 0.0
22/09:00am 30.6 35.4 24.5 70 4.3 NW 7 13 4 7 1011.9 1011.7 0.0
22/08:30am 29.1 34.2 24.9 78 2.9 NNW 7 11 4 6 1012.0 1011.8 0.0
22/08:00am 28.4 34.7 25.4 84 2.1 N 2 6 1 3 1011.9 1011.7 0.0
22/07:30am 27.1 33.9 25.5 91 1.1 CALM 0 0 0 0 1011.8 1011.6 0.0
22/07:00am 25.7 32.4 25.4 98 0.2 CALM 0 0 0 0 1011.1 1010.9 0.0
22/06:30am 24.6 30.6 24.3 98 0.2 CALM 0 0 0 0 1010.6 1010.5 0.0
22/06:00am 24.2 30.0 23.9 98 0.2 CALM 0 0 0 0 1010.0 1009.9 0.0
22/05:30am 24.0 29.7 23.8 99 0.1 CALM 0 0 0 0 1009.2 1009.1 0.0
22/05:00am 23.3 27.3 22.8 97 0.3 WSW 6 7 3 4 1008.9 1008.8 0.0
22/04:30am 23.3 28.2 22.3 94 0.7 CALM 0 0 0 0 1008.5 1008.4 0.0
22/04:00am 24.0 29.3 23.0 94 0.7 CALM 0 0 0 0 1008.3 1008.2 0.0
22/03:30am 24.9 30.0 24.0 95 0.6 NNE 4 6 2 3 1008.3 1008.2 0.0
22/03:00am 25.1 30.0 24.6 97 0.3 NE 7 9 4 5 1008.3 1008.2 0.0
22/02:30am 24.2 29.6 23.2 94 0.7 CALM 0 0 0 0 1008.2 1008.1 0.0
22/02:00am 24.4 29.7 23.0 92 0.9 CALM 0 0 0 0 1008.4 1008.3 0.0
22/01:30am 25.1 30.5 23.2 89 1.3 CALM 0 0 0 0 1008.6 1008.5 0.0
22/01:00am 25.4 30.5 24.0 92 1.0 N 4 6 2 3 1008.9 1008.8 0.0
22/12:30am 25.9 31.7 23.9 89 1.4 CALM 0 2 0 1 1009.1 1009.0 0.0
22/12:00am 26.2 32.0 23.9 87 1.6 CALM 0 0 0 0 1009.2 1009.1 0.0
 
Date/Time
CST
Temp
°C
App
Temp
°C
Dew
Point
°C
Rel
Hum
%
Delta-T
°C
Wind Press
QNH
hPa
Press
MSL
hPa
Rain since
9am
mm
Dir  Spd
km/h
Gust
km/h
Spd
kts
Gust
kts
21/11:30pm 26.6 32.6 24.3 87 1.6 CALM 0 2 0 1 1009.5 1009.4 0.0
21/11:00pm 26.6 31.6 23.9 85 1.9 N 4 4 2 2 1009.7 1009.6 0.0
21/10:30pm 26.9 31.6 24.0 84 2.0 N 6 6 3 3 1009.6 1009.5 0.0
21/10:00pm 27.5 32.3 24.1 82 2.3 N 6 6 3 3 1009.5 1009.4 0.0
21/09:30pm 27.8 32.5 24.0 80 2.6 NNW 6 7 3 4 1009.3 1009.2 0.0
21/09:00pm 28.4 32.9 24.0 77 3.0 NW 7 9 4 5 1009.1 1009.0 0.0
21/08:30pm 29.2 33.1 23.6 72 3.9 NW 9 13 5 7 1008.6 1008.5 0.0
21/08:00pm 29.9 33.3 23.3 67 4.5 NW 11 19 6 10 1008.2 1008.1 0.0
21/07:30pm 30.9 32.7 22.5 61 5.7 NW 17 24 9 13 1007.7 1007.6 0.0
21/07:00pm 31.9 33.4 20.5 51 7.6 NNW 13 20 7 11 1007.7 1007.6 0.0
21/06:30pm 33.9 33.5 17.2 37 10.7 N 15 22 8 12 1007.2 1007.1 0.0
21/06:00pm 35.2 33.6 16.0 31 12.2 N 19 26 10 14 1006.7 1006.6 0.0
21/05:30pm 36.1 34.8 16.8 32 12.4 N 19 24 10 13 1006.4 1006.3 0.0
21/05:00pm 36.3 38.4 20.9 40 10.4 NNW 11 15 6 8 1006.4 1006.3 0.0
21/04:30pm 35.9 39.4 23.5 48 8.7 NNW 11 19 6 10 1005.8 1005.7 0.0
21/04:00pm 34.3 39.0 24.3 56 7.0 NW 7 13 4 7 1006.5 1006.4 0.0
21/03:30pm 33.6 35.2 22.1 51 7.9 NW 17 22 9 12 1006.6 1006.5 0.0
21/03:00pm 34.1 36.4 23.5 54 7.4 NNW 17 22 9 12 1006.9 1006.8 0.0
21/02:30pm 35.0 36.3 22.7 49 8.5 NW 20 28 11 15 1007.2 1007.1 0.0
21/02:00pm 37.3 40.2 21.0 38 11.1 NNW 7 15 4 8 1007.4 1007.3 0.0
21/01:30pm 36.2 38.1 22.0 43 9.8 N 15 24 8 13 1007.9 1007.8 0.0
21/01:00pm 37.1 40.3 21.2 39 10.8 N 6 15 3 8 1008.4 1008.3 0.0
21/12:30pm 36.1 39.2 21.5 42 10.0 NNW 7 17 4 9 1009.0 1008.9 0.0
21/12:00pm 35.8 39.2 22.7 46 9.1 N 9 19 5 10 1009.6 1009.5 0.0
21/11:30am 34.7 38.2 22.1 48 8.6 WNW 7 19 4 10 1010.0 1009.9 0.0
21/11:00am 34.4 38.3 22.5 50 8.2 WNW 6 11 3 6 1010.6 1010.5 0.0
21/10:30am 33.4 37.8 23.4 55 6.9 WNW 6 9 3 5 1011.0 1010.8 0.0
21/10:00am 31.8 35.8 23.1 60 6.0 SW 7 11 4 6 1011.3 1011.1 0.0
21/09:30am 31.2 36.2 24.8 69 4.5 WSW 7 13 4 7 1011.4 1011.2 0.0
21/09:00am 30.3 35.2 24.4 70 4.1 SSW 6 9 3 5 1011.6 1011.4 0.0
21/08:30am 29.1 33.3 23.1 70 4.1 SW 6 9 3 5 1011.3 1011.1 0.0
21/08:00am 27.8 31.8 22.1 71 3.8 S 4 7 2 4 1011.2 1011.0 0.0
21/07:30am 26.0 29.3 21.4 76 3.1 S 6 9 3 5 1010.9 1010.7 0.0
21/07:00am 23.6 28.7 22.6 94 0.7 CALM 0 0 0 0 1010.1 1010.0 0.0
21/06:30am 22.1 26.3 20.9 93 0.8 CALM 0 0 0 0 1009.8 1009.7 0.0
21/06:00am 22.3 26.4 21.5 95 0.5 ENE 2 4 1 2 1009.4 1009.3 0.0
21/05:30am 22.2 26.3 20.8 92 0.9 CALM 0 0 0 0 1009.2 1009.1 0.0
21/05:00am 22.3 26.8 21.5 95 0.5 CALM 0 0 0 0 1009.0 1008.9 0.0
21/04:30am 21.7 25.6 20.3 92 0.9 CALM 0 0 0 0 1008.5 1008.4 0.0
21/04:00am 22.3 26.5 20.9 92 0.9 CALM 0 0 0 0 1008.5 1008.4 0.0
21/03:30am 22.8 27.3 21.6 93 0.8 CALM 0 0 0 0 1008.4 1008.3 0.0
21/03:00am 22.7 27.2 21.5 93 0.8 CALM 0 0 0 0 1008.4 1008.3 0.0
21/02:30am 22.4 26.3 21.2 93 0.8 ENE 2 4 1 2 1008.4 1008.3 0.0
21/02:00am 22.3 26.1 20.9 92 0.9 ENE 2 2 1 1 1008.7 1008.6 0.0
21/01:30am 23.0 26.9 21.1 89 1.2 ENE 2 4 1 2 1009.0 1008.9 0.0
21/01:00am 23.8 28.3 22.2 91 1.1 ENE 2 4 1 2 1009.2 1009.1 0.0
21/12:30am 23.0 27.4 21.3 90 1.1 CALM 0 0 0 0 1009.6 1009.5 0.0
21/12:00am 23.7 27.6 21.2 86 1.6 NE 2 2 1 1 1009.7 1009.6 0.0
 
Date/Time
CST
Temp
°C
App
Temp
°C
Dew
Point
°C
Rel
Hum
%
Delta-T
°C
Wind Press
QNH
hPa
Press
MSL
hPa
Rain since
9am
mm
Dir  Spd
km/h
Gust
km/h
Spd
kts
Gust
kts
20/11:30pm 24.7 29.4 22.0 85 1.8 CALM 0 2 0 1 1009.9 1009.8 0.0
20/11:00pm 24.6 29.5 22.3 87 1.5 CALM 0 2 0 1 1010.0 1009.9 0.0
20/10:30pm 24.3 27.9 22.0 87 1.5 N 6 6 3 3 1009.8 1009.7 0.0
20/10:00pm 24.6 28.6 22.1 86 1.7 NNW 4 7 2 4 1009.5 1009.4 0.0
20/09:30pm 24.7 28.2 21.8 84 1.9 NNW 6 7 3 4 1009.1 1009.0 0.0
20/09:00pm 25.2 28.5 21.5 80 2.5 WNW 6 6 3 3 1008.7 1008.6 0.0
20/08:30pm 25.4 28.2 20.9 76 3.0 NW 7 9 4 5 1008.5 1008.4 0.0
20/08:00pm 26.1 28.9 20.4 71 3.7 WNW 6 7 3 4 1008.2 1008.1 0.0
20/07:30pm 26.6 29.3 20.2 68 4.2 NW 6 7 3 4 1007.6 1007.5 0.0
20/07:00pm 27.3 29.6 19.9 64 4.8 WNW 7 11 4 6 1007.4 1007.3 0.0
20/06:30pm 28.7 30.1 20.4 60 5.5 W 13 22 7 12 1007.2 1007.1 0.0
20/06:00pm 29.3 30.6 20.2 58 6.0 W 13 17 7 9 1007.1 1007.0 0.0
20/05:30pm 29.4 31.2 21.1 61 5.5 NW 13 17 7 9 1006.9 1006.8 0.0
20/05:00pm 29.6 31.6 21.5 61 5.4 NW 13 19 7 10 1006.8 1006.7 0.0
20/04:30pm 30.6 33.2 22.7 62 5.4 NW 13 19 7 10 1006.4 1006.3 0.0
20/04:00pm 31.6 33.4 23.2 61 5.8 NNW 19 24 10 13 1006.1 1006.0 0.0
20/03:30pm 33.7 35.9 24.8 59 6.3 NW 22 32 12 17 1006.2 1006.1 0.0
20/03:00pm 35.1 37.0 23.8 52 7.9 NNW 20 28 11 15 1006.0 1005.9 0.0
20/02:30pm 36.4 37.9 20.6 39 10.7 NNW 13 20 7 11 1006.2 1006.1 0.0
20/02:00pm 37.0 39.3 19.4 35 11.7 N 6 13 3 7 1006.9 1006.8 0.0
20/01:30pm 37.2 39.6 19.6 35 11.8 N 6 11 3 6 1007.5 1007.4 0.0
20/01:00pm 36.9 39.6 20.6 38 11.0 NNW 7 15 4 8 1008.0 1007.9 0.0
20/12:30pm 36.1 38.9 20.4 40 10.6 NNW 6 9 3 5 1008.7 1008.6 0.0
20/12:00pm 35.8 38.8 20.1 40 10.5 WNW 4 13 2 7 1009.1 1009.0 0.0
20/11:30am 35.5 38.6 21.4 44 9.6 WNW 7 11 4 6 1009.6 1009.5 0.0
20/11:00am 34.7 36.9 20.3 43 9.6 N 9 17 5 9 1010.0 1009.9 0.0
20/10:30am 33.9 38.0 23.0 53 7.5 NNE 6 11 3 6 1010.1 1010.0 0.0
20/10:00am 32.9 36.1 22.4 54 7.2 NW 9 15 5 8 1010.1 1010.0 0.0
20/09:30am 31.9 36.5 23.2 60 6.0 W 4 9 2 5 1010.3 1010.2 0.0
20/09:00am 30.6 35.4 24.5 70 4.3 W 7 13 4 7 1010.4 1010.3 0.0
20/08:30am 29.8 35.4 24.2 72 3.9 WNW 2 6 1 3 1010.3 1010.2 0.0
20/08:00am 28.5 34.0 23.4 74 3.5 CALM 0 2 0 1 1010.1 1010.0 0.0
20/07:30am 26.4 31.7 23.1 82 2.2 CALM 0 0 0 0 1009.9 1009.8 0.0
20/07:00am 23.4 28.3 22.4 94 0.7 CALM 0 0 0 0 1009.7 1009.6 0.0
20/06:30am 22.3 26.7 21.3 94 0.7 CALM 0 0 0 0 1009.4 1009.3 0.0
20/06:00am 22.1 26.3 20.9 93 0.8 CALM 0 0 0 0 1009.2 1009.1 0.0
20/05:30am 22.1 26.3 20.9 93 0.8 CALM 0 0 0 0 1008.9 1008.8 0.0
20/05:00am 22.1 26.3 20.9 93 0.8 CALM 0 0 0 0 1008.7 1008.6 0.0
20/04:30am 22.6 27.1 21.6 94 0.7 CALM 0 0 0 0 1008.4 1008.3 0.0
20/04:00am 22.1 26.1 20.6 91 1.0 CALM 0 0 0 0 1008.1 1008.0 0.0
20/03:30am 23.4 28.0 21.7 90 1.1 CALM 0 0 0 0 1008.3 1008.2 0.0
20/03:00am 23.8 28.4 21.7 88 1.4 CALM 0 2 0 1 1008.3 1008.2 0.0
20/02:30am 24.3 28.5 21.8 86 1.7 ENE 2 4 1 2 1008.6 1008.5 0.0
20/02:00am 24.5 28.2 22.2 87 1.5 E 6 7 3 4 1008.9 1008.8 0.0
20/01:30am 24.2 28.6 22.1 88 1.4 ENE 2 2 1 1 1009.0 1008.9 0.0
20/01:00am 24.9 29.2 22.0 84 1.9 ENE 2 2 1 1 1009.2 1009.1 0.0
20/12:30am 24.7 29.2 21.6 83 2.1 CALM 0 0 0 0 1009.3 1009.2 0.0
20/12:00am 25.8 29.8 22.1 80 2.5 E 4 6 2 3 1009.5 1009.4 0.0
 
Date/Time
CST
Temp
°C
App
Temp
°C
Dew
Point
°C
Rel
Hum
%
Delta-T
°C
Wind Press
QNH
hPa
Press
MSL
hPa
Rain since
9am
mm
Dir  Spd
km/h
Gust
km/h
Spd
kts
Gust
kts
19/11:30pm 25.8 29.7 21.9 79 2.6 ESE 4 4 2 2 1009.7 1009.6 0.0
19/11:00pm 26.7 31.9 22.8 79 2.6 CALM 0 0 0 0 1009.8 1009.7 0.0
19/10:30pm 26.7 31.5 22.1 76 3.1 CALM 0 0 0 0 1009.8 1009.7 0.0
19/10:00pm 27.1 31.3 22.5 76 3.1 WSW 4 6 2 3 1009.7 1009.6 0.0
19/09:30pm 27.8 31.1 22.5 73 3.6 WSW 9 13 5 7 1009.3 1009.2 0.0
19/09:00pm 27.8 31.2 22.7 74 3.5 W 9 13 5 7 1009.0 1008.9 0.0
19/08:30pm 27.9 30.9 21.9 70 4.0 WNW 9 13 5 7 1008.9 1008.8 0.0
19/08:00pm 28.9 31.3 22.2 67 4.5 WNW 13 20 7 11 1008.6 1008.5 0.0
19/07:30pm 29.8 32.9 22.8 66 4.8 W 11 17 6 9 1008.5 1008.4 0.0
19/07:00pm 30.5 34.1 22.4 62 5.5 W 7 9 4 5 1008.1 1008.0 0.0
19/06:30pm 31.9 32.9 17.8 43 9.1 NW 9 13 5 7 1007.7 1007.6 0.0
19/06:00pm 33.1 32.4 16.5 37 10.5 N 15 20 8 11 1007.1 1007.0 0.0
19/05:30pm 34.2 32.6 15.1 31 11.9 N 17 24 9 13 1007.0 1006.9 0.0
19/05:00pm 35.2 32.3 13.9 27 13.1 N 22 30 12 16 1006.4 1006.3 0.0
19/04:30pm 37.3 34.8 15.2 27 13.9 N 22 28 12 15 1005.8 1005.7 0.0
19/04:00pm 37.9 37.4 16.8 29 13.6 NNE 15 20 8 11 1005.9 1005.8 0.0
19/03:30pm 37.9 37.6 18.3 31 12.9 N 17 24 9 13 1005.9 1005.8 0.0
19/03:00pm 37.6 38.9 17.6 31 13.0 N 7 13 4 7 1006.4 1006.3 0.0
19/02:30pm 37.5 38.1 18.5 32 12.5 NNW 13 19 7 10 1006.9 1006.8 0.0
19/02:00pm 37.2 38.6 17.7 31 12.7 ESE 7 17 4 9 1007.4 1007.3 0.0

Latest Capital City Observations: Canberra | Sydney | Melbourne | Brisbane | Adelaide | Perth | Hobart | Darwin

Other formats

Comma delimited format used in spreadsheet applications
http://www.bom.gov.au/fwo/IDD60901/IDD60901.95121.axf

JavaScript Object Notation format (JSON) in row-major order
http://www.bom.gov.au/fwo/IDD60901/IDD60901.95121.json

Data quality

Most of these data are generated automatically and are frequently updated. Quality checks on data are not normally performed. It is possible for incorrect values to appear. Refer to information at About Latest Weather Observations and please check the disclaimer before using these data.